createdAt,value
2019-03-11T00:02:28.142Z,99.90
2019-03-11T00:05:01.169Z,99.90
2019-03-11T00:07:33.453Z,99.90
2019-03-11T00:10:09.756Z,99.90
2019-03-11T00:12:42.310Z,99.90
2019-03-11T00:15:15.117Z,99.90
2019-03-11T00:17:47.918Z,99.90
2019-03-11T00:20:20.355Z,99.90
2019-03-11T00:22:53.300Z,99.90
2019-03-11T00:25:27.295Z,99.90
2019-03-11T00:28:00.836Z,99.90
2019-03-11T00:30:33.847Z,99.90
2019-03-11T00:33:08.825Z,99.90
2019-03-11T00:35:41.541Z,99.90
2019-03-11T00:38:14.326Z,99.90
2019-03-11T00:40:47.430Z,99.90
2019-03-11T00:43:20.115Z,99.90
2019-03-11T00:45:52.291Z,99.90
2019-03-11T00:48:25.052Z,99.90
2019-03-11T00:50:57.735Z,99.90
2019-03-11T00:53:30.161Z,99.90
2019-03-11T00:56:11.526Z,99.90
2019-03-11T00:58:44.362Z,99.90
2019-03-11T01:01:16.717Z,99.90
2019-03-11T01:03:49.255Z,99.90
2019-03-11T01:06:29.673Z,99.90
2019-03-11T01:09:05.192Z,99.90
2019-03-11T01:11:38.145Z,99.90
2019-03-11T01:14:12.306Z,99.90
2019-03-11T01:16:45.173Z,99.90
2019-03-11T01:19:18.353Z,99.90
2019-03-11T01:21:53.985Z,99.90
2019-03-11T01:24:27.784Z,99.90
2019-03-11T01:27:01.294Z,99.90
2019-03-11T01:29:37.659Z,99.90
2019-03-11T01:32:10.766Z,99.90
2019-03-11T01:34:45.747Z,99.90
2019-03-11T01:37:19.781Z,99.90
2019-03-11T01:39:53.473Z,99.90
2019-03-11T01:42:25.971Z,99.90
2019-03-11T01:45:00.594Z,99.90
2019-03-11T01:47:35.174Z,99.90
2019-03-11T01:50:12.302Z,99.90
2019-03-11T01:52:45.568Z,99.90
2019-03-11T01:55:18.173Z,99.90
2019-03-11T01:57:51.236Z,99.90
2019-03-11T02:00:23.676Z,99.90
2019-03-11T02:02:56.078Z,99.90
2019-03-11T02:05:29.137Z,99.90
2019-03-11T02:08:01.543Z,99.90
2019-03-11T02:10:34.354Z,99.90
2019-03-11T02:13:07.289Z,99.90
2019-03-11T02:15:40.476Z,99.90
2019-03-11T02:18:12.848Z,99.90
2019-03-11T02:20:45.480Z,99.90
2019-03-11T02:23:17.721Z,99.90
2019-03-11T02:25:51.155Z,99.90
2019-03-11T02:28:23.768Z,99.90
2019-03-11T02:30:56.391Z,99.90
2019-03-11T02:33:29.809Z,99.90
2019-03-11T02:36:02.200Z,99.90
2019-03-11T02:38:34.940Z,99.90
2019-03-11T02:41:07.635Z,99.90
2019-03-11T02:43:40.282Z,99.90
2019-03-11T02:46:12.795Z,99.90
2019-03-11T02:48:45.514Z,99.90
2019-03-11T02:51:20.170Z,99.90
2019-03-11T02:53:52.759Z,99.90
2019-03-11T02:56:25.237Z,99.90
2019-03-11T02:58:57.711Z,99.90
2019-03-11T03:01:51.311Z,99.90
2019-03-11T03:04:30.073Z,99.90
2019-03-11T03:07:03.213Z,99.90
2019-03-11T03:09:36.252Z,99.90
2019-03-11T03:12:09.699Z,99.90
2019-03-11T03:14:42.164Z,99.90
2019-03-11T03:17:14.702Z,99.90
2019-03-11T03:19:47.096Z,99.90
2019-03-11T03:22:19.597Z,99.90
2019-03-11T03:24:52.352Z,99.90
2019-03-11T03:27:25.333Z,99.90
2019-03-11T03:29:57.658Z,99.90
2019-03-11T03:32:30.349Z,99.90
2019-03-11T03:35:02.749Z,99.90
2019-03-11T03:37:35.556Z,99.90
2019-03-11T03:40:08.755Z,99.90
2019-03-11T03:42:41.382Z,99.90
2019-03-11T03:45:31.390Z,99.90
2019-03-11T03:48:04.126Z,99.90
2019-03-11T03:50:38.653Z,99.90
2019-03-11T03:53:12.023Z,99.90
2019-03-11T03:55:45.272Z,99.90
2019-03-11T03:58:17.870Z,99.90
2019-03-11T04:00:50.241Z,99.90
2019-03-11T04:03:23.056Z,99.90
2019-03-11T04:05:55.569Z,99.90
2019-03-11T04:08:32.188Z,99.90
2019-03-11T04:11:04.675Z,99.90
2019-03-11T04:13:37.382Z,99.90
2019-03-11T04:16:10.507Z,99.90
2019-03-11T04:18:54.384Z,99.90
2019-03-11T04:21:27.891Z,99.90
2019-03-11T04:24:00.589Z,99.90
2019-03-11T04:26:33.804Z,99.90
2019-03-11T04:29:06.643Z,99.90
2019-03-11T04:31:38.940Z,99.90
2019-03-11T04:34:11.606Z,99.90
2019-03-11T04:36:44.359Z,99.90
2019-03-11T04:39:16.802Z,99.90
2019-03-11T04:41:49.436Z,99.90
2019-03-11T04:44:21.784Z,99.90
2019-03-11T04:46:55.106Z,99.90
2019-03-11T04:49:27.805Z,99.90
2019-03-11T04:52:00.538Z,99.90
2019-03-11T04:54:35.052Z,99.90
2019-03-11T04:57:07.819Z,99.90
2019-03-11T04:59:40.673Z,99.90
2019-03-11T05:02:13.498Z,99.90
2019-03-11T05:04:46.293Z,99.90
2019-03-11T05:07:18.935Z,99.90
2019-03-11T05:09:51.654Z,99.90
2019-03-11T05:12:24.060Z,99.90
2019-03-11T05:14:57.444Z,99.90
2019-03-11T05:17:30.391Z,99.90
2019-03-11T05:20:05.407Z,99.90
2019-03-11T05:22:38.905Z,99.90
2019-03-11T05:25:12.550Z,99.90
2019-03-11T05:27:45.596Z,99.90
2019-03-11T05:30:18.779Z,99.90
2019-03-11T05:32:51.115Z,99.90
2019-03-11T05:35:23.692Z,99.90
2019-03-11T05:37:56.134Z,99.90
2019-03-11T05:40:28.447Z,99.90
2019-03-11T05:43:01.208Z,99.90
2019-03-11T05:45:33.705Z,99.90
2019-03-11T05:48:06.431Z,99.90
2019-03-11T05:50:38.991Z,99.90
2019-03-11T05:53:11.731Z,99.90
2019-03-11T05:55:44.101Z,99.90
2019-03-11T05:58:17.608Z,99.90
2019-03-11T06:00:50.595Z,99.90
2019-03-11T06:03:23.432Z,99.90
2019-03-11T06:05:56.278Z,99.90
2019-03-11T06:08:29.134Z,99.90
2019-03-11T06:11:02.475Z,99.90
2019-03-11T06:13:36.203Z,99.90
2019-03-11T06:16:09.067Z,99.90
2019-03-11T06:18:50.867Z,99.90
2019-03-11T06:21:37.631Z,99.90
2019-03-11T06:24:10.294Z,99.90
2019-03-11T06:26:43.475Z,99.90
2019-03-11T06:29:15.976Z,99.90
2019-03-11T06:31:48.755Z,99.90
2019-03-11T06:34:21.298Z,99.90
2019-03-11T06:36:53.658Z,99.90
2019-03-11T06:39:26.037Z,99.90
2019-03-11T06:41:58.150Z,99.90
2019-03-11T06:44:31.536Z,99.90
2019-03-11T06:47:04.263Z,99.90
2019-03-11T06:49:36.671Z,99.90
2019-03-11T06:52:08.872Z,99.90
2019-03-11T06:54:42.051Z,99.90
2019-03-11T06:57:14.602Z,99.90
2019-03-11T06:59:46.918Z,99.90
2019-03-11T07:02:19.857Z,99.90
2019-03-11T07:04:52.414Z,99.90
2019-03-11T07:07:25.503Z,99.90
2019-03-11T07:09:58.212Z,99.90
2019-03-11T07:12:31.320Z,99.90
2019-03-11T07:15:03.828Z,99.90
2019-03-11T07:17:37.219Z,99.90
2019-03-11T07:20:11.034Z,99.90
2019-03-11T07:22:44.136Z,99.90
2019-03-11T07:25:16.821Z,99.90
2019-03-11T07:27:49.226Z,99.90
2019-03-11T07:30:22.401Z,99.90
2019-03-11T07:32:55.324Z,99.90
2019-03-11T07:35:28.209Z,99.90
2019-03-11T07:38:00.555Z,99.90
2019-03-11T07:40:32.946Z,99.90
2019-03-11T07:43:05.455Z,99.90
2019-03-11T07:45:38.313Z,99.90
2019-03-11T07:48:11.127Z,99.90
2019-03-11T07:50:43.551Z,99.90
2019-03-11T07:53:16.575Z,99.90
2019-03-11T07:55:49.300Z,99.90
2019-03-11T07:58:22.771Z,99.90
2019-03-11T08:00:55.692Z,99.90
2019-03-11T08:03:29.600Z,99.90
2019-03-11T08:06:02.694Z,99.90
2019-03-11T08:08:35.876Z,99.90
2019-03-11T08:11:08.765Z,99.90
2019-03-11T08:13:42.394Z,99.90
2019-03-11T08:16:15.432Z,99.90
2019-03-11T08:18:47.589Z,99.90
2019-03-11T08:21:20.339Z,99.90
2019-03-11T08:23:52.850Z,99.90
2019-03-11T08:26:25.693Z,99.90
2019-03-11T08:28:58.394Z,99.90
2019-03-11T08:31:30.738Z,99.90
2019-03-11T08:34:03.295Z,99.90
2019-03-11T08:36:36.427Z,99.90
2019-03-11T08:39:12.863Z,99.90
2019-03-11T08:41:45.765Z,99.90
2019-03-11T08:44:18.496Z,99.90
2019-03-11T08:46:50.887Z,99.90
2019-03-11T08:49:23.319Z,99.90
2019-03-11T08:51:56.279Z,99.90
2019-03-11T08:54:28.722Z,99.90
2019-03-11T08:57:01.610Z,99.90
2019-03-11T08:59:33.806Z,99.90
2019-03-11T09:02:06.960Z,99.90
2019-03-11T09:04:40.435Z,99.90
2019-03-11T09:07:13.006Z,99.90
2019-03-11T09:09:45.866Z,99.90
2019-03-11T09:12:18.986Z,99.90
2019-03-11T09:14:51.830Z,99.90
2019-03-11T09:17:24.821Z,99.90
2019-03-11T09:19:57.342Z,99.90
2019-03-11T09:22:30.041Z,99.90
2019-03-11T09:25:02.677Z,99.90
2019-03-11T09:27:35.629Z,99.90
2019-03-11T09:30:09.827Z,99.90
2019-03-11T09:32:42.842Z,99.90
2019-03-11T09:35:15.572Z,99.90
2019-03-11T09:37:48.490Z,99.90
2019-03-11T09:40:20.950Z,99.90
2019-03-11T09:42:53.663Z,99.90
2019-03-11T09:45:26.423Z,99.90
2019-03-11T09:47:59.098Z,99.90
2019-03-11T09:50:31.751Z,99.90
2019-03-11T09:53:04.442Z,99.90
2019-03-11T09:55:36.705Z,99.90
2019-03-11T09:58:09.639Z,99.90
2019-03-11T10:00:42.673Z,99.90
2019-03-11T10:03:15.382Z,99.90
2019-03-11T10:05:47.988Z,99.90
2019-03-11T10:08:20.770Z,99.90
2019-03-11T10:10:53.413Z,99.90
2019-03-11T10:13:27.692Z,99.90
2019-03-11T10:16:01.009Z,99.90
2019-03-11T10:18:33.207Z,99.90
2019-03-11T10:21:06.119Z,99.90
2019-03-11T10:23:38.581Z,99.90
2019-03-11T10:26:12.268Z,99.90
2019-03-11T10:28:44.942Z,99.90
2019-03-11T10:31:17.856Z,99.90
2019-03-11T10:33:50.815Z,99.90
2019-03-11T10:36:23.188Z,99.90
2019-03-11T10:38:56.047Z,99.90
2019-03-11T10:41:28.510Z,99.90
2019-03-11T10:44:01.400Z,99.90
2019-03-11T10:46:33.990Z,99.90
2019-03-11T10:49:06.777Z,99.90
2019-03-11T10:51:39.186Z,99.90
2019-03-11T10:54:11.564Z,99.90
2019-03-11T10:56:43.788Z,99.90
2019-03-11T10:59:16.280Z,99.90
2019-03-11T11:01:49.302Z,99.90
2019-03-11T11:04:21.943Z,99.90
2019-03-11T11:06:54.652Z,99.90
2019-03-11T11:09:27.070Z,99.90
2019-03-11T11:11:59.991Z,99.90
2019-03-11T11:14:36.058Z,99.90
2019-03-11T11:17:09.572Z,99.90
2019-03-11T11:19:41.931Z,99.90
2019-03-11T11:22:14.565Z,99.90
2019-03-11T11:24:47.307Z,99.90
2019-03-11T11:27:20.061Z,99.90
2019-03-11T11:29:52.382Z,99.90
2019-03-11T11:32:25.178Z,99.90
2019-03-11T11:34:57.771Z,99.90
2019-03-11T11:37:30.455Z,99.90
2019-03-11T11:40:02.873Z,99.90
2019-03-11T11:42:35.829Z,99.90
2019-03-11T11:45:09.771Z,99.90
2019-03-11T11:47:42.278Z,99.90
2019-03-11T11:50:16.853Z,99.90
2019-03-11T11:52:50.179Z,99.90
2019-03-11T11:55:23.432Z,99.90
2019-03-11T11:57:55.738Z,99.90
2019-03-11T12:00:30.432Z,99.90
2019-03-11T12:03:03.160Z,99.90
2019-03-11T12:05:35.714Z,99.90
2019-03-11T12:08:08.346Z,99.90
2019-03-11T12:10:41.042Z,99.90
2019-03-11T12:13:13.234Z,99.90
2019-03-11T12:15:46.126Z,99.90
2019-03-11T12:18:18.493Z,99.90
2019-03-11T12:20:50.870Z,99.90
2019-03-11T12:23:23.669Z,99.90
2019-03-11T12:25:55.958Z,99.90
2019-03-11T12:28:28.284Z,99.90
2019-03-11T12:31:01.350Z,99.90
2019-03-11T12:33:33.998Z,99.90
2019-03-11T12:36:06.696Z,99.90
2019-03-11T12:38:39.427Z,99.90
2019-03-11T12:41:12.110Z,99.90
2019-03-11T12:43:44.794Z,99.90
2019-03-11T12:46:17.460Z,99.90
2019-03-11T12:48:50.102Z,99.90
2019-03-11T12:51:22.694Z,99.90
2019-03-11T12:53:55.397Z,99.90
2019-03-11T12:56:27.783Z,99.90
2019-03-11T12:59:00.798Z,99.90
2019-03-11T13:01:33.217Z,99.90
2019-03-11T13:04:06.248Z,99.90
2019-03-11T13:06:39.560Z,99.90
2019-03-11T13:09:12.810Z,99.90
2019-03-11T13:11:46.046Z,99.90
2019-03-11T13:14:19.438Z,99.90
2019-03-11T13:16:52.499Z,99.90
2019-03-11T13:19:25.648Z,99.90
2019-03-11T13:21:58.251Z,99.90
2019-03-11T13:24:30.951Z,99.90
2019-03-11T13:27:03.498Z,99.90
2019-03-11T13:29:36.038Z,99.90
2019-03-11T13:32:08.768Z,99.90
2019-03-11T13:34:41.633Z,99.90
2019-03-11T13:37:14.029Z,99.90
2019-03-11T13:39:46.807Z,99.90
2019-03-11T13:42:19.240Z,99.90
2019-03-11T13:44:51.915Z,99.90
2019-03-11T13:47:24.397Z,99.90
2019-03-11T13:49:56.959Z,99.90
2019-03-11T13:52:29.390Z,99.90
2019-03-11T13:55:09.810Z,99.90
2019-03-11T13:57:36.330Z,99.90
2019-03-11T14:00:10.896Z,99.90
2019-03-11T14:02:43.898Z,99.90
2019-03-11T14:05:40.228Z,99.90
2019-03-11T14:08:12.708Z,99.90
2019-03-11T14:10:45.970Z,99.90
2019-03-11T14:13:18.784Z,99.90
2019-03-11T14:15:52.813Z,99.90
2019-03-11T14:18:25.585Z,99.90
2019-03-11T14:20:59.070Z,99.90
2019-03-11T14:23:32.207Z,99.90
2019-03-11T14:26:05.146Z,99.90
2019-03-11T14:28:37.184Z,99.90
2019-03-11T14:31:10.507Z,99.90
2019-03-11T14:33:43.362Z,99.90
2019-03-11T14:36:16.071Z,99.90
2019-03-11T14:38:48.334Z,99.90
2019-03-11T14:41:21.286Z,99.90
2019-03-11T14:43:54.049Z,99.90
2019-03-11T14:46:26.977Z,99.90
2019-03-11T14:48:59.866Z,99.90
2019-03-11T14:51:32.305Z,99.90
2019-03-11T14:54:04.906Z,99.90
2019-03-11T14:56:37.712Z,99.90
2019-03-11T14:59:10.287Z,99.90
2019-03-11T15:01:42.650Z,99.90
2019-03-11T15:04:15.326Z,99.90
2019-03-11T15:06:48.237Z,99.90
2019-03-11T15:09:20.884Z,99.90
2019-03-11T15:11:53.587Z,99.90
2019-03-11T15:14:26.012Z,99.90
2019-03-11T15:16:58.895Z,99.90
2019-03-11T15:19:32.152Z,99.90
2019-03-11T15:22:05.034Z,99.90
2019-03-11T15:24:37.656Z,99.90
2019-03-11T15:27:10.636Z,99.90
2019-03-11T15:29:43.043Z,99.90
2019-03-11T15:32:16.124Z,99.90
2019-03-11T15:34:48.610Z,99.90
2019-03-11T15:37:20.860Z,99.90
2019-03-11T15:39:53.471Z,99.90
2019-03-11T15:42:26.146Z,99.90
2019-03-11T15:44:58.602Z,99.90
2019-03-11T15:47:30.889Z,99.90
2019-03-11T15:50:08.860Z,99.90
2019-03-11T15:52:40.998Z,98.80
2019-03-11T15:55:14.413Z,97.30
2019-03-11T15:57:47.558Z,98.20
2019-03-11T16:00:21.880Z,98.40
2019-03-11T16:02:54.811Z,99.90
2019-03-11T16:05:27.316Z,99.90
2019-03-11T16:08:00.089Z,99.20
2019-03-11T16:10:32.900Z,98.90
2019-03-11T16:13:06.196Z,99.90
2019-03-11T16:15:39.155Z,99.90
2019-03-11T16:18:12.049Z,99.80
2019-03-11T16:20:45.074Z,99.90
2019-03-11T16:23:17.479Z,99.90
2019-03-11T16:25:49.811Z,99.90
2019-03-11T16:28:22.350Z,99.90
2019-03-11T16:30:55.002Z,99.90
2019-03-11T16:33:27.868Z,99.90
2019-03-11T16:36:00.902Z,99.90
2019-03-11T16:38:33.814Z,99.90
2019-03-11T16:41:06.308Z,99.90
2019-03-11T16:43:38.996Z,99.90
2019-03-11T16:46:11.302Z,99.90
2019-03-11T16:48:44.510Z,99.90
2019-03-11T16:51:17.051Z,99.90
2019-03-11T16:53:50.174Z,99.90
2019-03-11T16:56:22.768Z,99.90
2019-03-11T16:58:55.660Z,99.90
2019-03-11T17:01:28.492Z,99.90
2019-03-11T17:04:00.694Z,99.90
2019-03-11T17:06:33.595Z,99.90
2019-03-11T17:09:07.087Z,99.90
2019-03-11T17:11:40.080Z,99.90
2019-03-11T17:14:12.318Z,99.90
2019-03-11T17:16:45.239Z,99.90
2019-03-11T17:19:18.476Z,99.90
2019-03-11T17:21:51.403Z,99.90
2019-03-11T17:24:24.153Z,99.90
2019-03-11T17:26:56.933Z,99.90
2019-03-11T17:29:34.658Z,99.90
2019-03-11T17:32:08.297Z,99.90
2019-03-11T17:34:40.750Z,99.90
2019-03-11T17:37:14.098Z,99.90
2019-03-11T17:39:46.504Z,99.90
2019-03-11T17:42:19.353Z,99.90
2019-03-11T17:44:52.091Z,99.90
2019-03-11T17:47:24.947Z,99.90
2019-03-11T17:49:57.051Z,99.90
2019-03-11T17:52:29.470Z,99.90
2019-03-11T17:55:02.568Z,99.90
2019-03-11T17:57:35.688Z,99.90
2019-03-11T18:00:11.934Z,99.90
2019-03-11T18:02:44.529Z,99.90
2019-03-11T18:05:17.821Z,99.90
2019-03-11T18:07:50.104Z,99.90
2019-03-11T18:10:22.697Z,99.90
2019-03-11T18:12:55.471Z,99.90
2019-03-11T18:15:28.543Z,99.90
2019-03-11T18:18:01.074Z,99.90
2019-03-11T18:20:33.620Z,99.90
2019-03-11T18:23:06.066Z,99.90
2019-03-11T18:25:38.742Z,99.90
2019-03-11T18:28:11.434Z,99.90
2019-03-11T18:30:44.224Z,99.90
2019-03-11T18:33:17.044Z,99.90
2019-03-11T18:35:49.864Z,99.90
2019-03-11T18:38:22.643Z,99.90
2019-03-11T18:40:55.141Z,99.90
2019-03-11T18:43:27.615Z,99.90
2019-03-11T18:46:00.636Z,99.90
2019-03-11T18:48:33.597Z,99.90
2019-03-11T18:51:10.930Z,99.90
2019-03-11T18:53:40.387Z,99.90
2019-03-11T18:56:13.098Z,99.90
2019-03-11T18:58:45.595Z,99.90
2019-03-11T19:01:18.138Z,99.90
2019-03-11T19:03:51.463Z,99.90
2019-03-11T19:06:23.897Z,99.90
2019-03-11T19:08:56.360Z,99.90
2019-03-11T19:11:28.906Z,99.90
2019-03-11T19:14:01.410Z,99.90
2019-03-11T19:16:33.888Z,99.90
2019-03-11T19:19:06.830Z,99.90
2019-03-11T19:21:40.037Z,99.90
2019-03-11T19:24:12.520Z,99.90
2019-03-11T19:26:45.333Z,99.90
2019-03-11T19:29:18.219Z,99.90
2019-03-11T19:31:50.947Z,99.90
2019-03-11T19:34:25.229Z,99.90
2019-03-11T19:37:13.591Z,99.90
2019-03-11T19:39:54.193Z,99.90
2019-03-11T19:42:36.876Z,99.90
2019-03-11T19:45:10.734Z,99.90
2019-03-11T19:47:43.544Z,99.90
2019-03-11T19:50:16.904Z,99.90
2019-03-11T19:52:58.309Z,99.90
2019-03-11T19:55:24.636Z,99.90
2019-03-11T19:57:57.466Z,99.90
2019-03-11T20:00:30.041Z,99.90
2019-03-11T20:03:02.912Z,99.90
2019-03-11T20:05:35.906Z,99.90
2019-03-11T20:08:08.601Z,99.90
2019-03-11T20:10:41.632Z,99.90
2019-03-11T20:13:14.525Z,99.90
2019-03-11T20:15:47.442Z,99.90
2019-03-11T20:18:21.849Z,99.90
2019-03-11T20:20:54.460Z,99.90
2019-03-11T20:23:31.724Z,99.90
2019-03-11T20:26:04.534Z,99.90
2019-03-11T20:28:37.229Z,99.90
2019-03-11T20:31:10.222Z,99.90
2019-03-11T20:33:42.867Z,99.90
2019-03-11T20:36:20.665Z,99.90
2019-03-11T20:38:49.950Z,99.90
2019-03-11T20:41:22.442Z,99.90
2019-03-11T20:43:55.671Z,99.90
2019-03-11T20:46:28.370Z,99.90
2019-03-11T20:49:13.311Z,99.90
2019-03-11T20:51:45.942Z,99.90
2019-03-11T20:54:18.522Z,99.90
2019-03-11T20:56:50.683Z,99.90
2019-03-11T20:59:23.125Z,99.90
2019-03-11T21:01:56.066Z,99.90
2019-03-11T21:04:29.811Z,99.90
2019-03-11T21:07:02.135Z,99.90
2019-03-11T21:09:34.560Z,99.90
2019-03-11T21:12:07.567Z,99.90
2019-03-11T21:14:40.664Z,99.90
2019-03-11T21:17:24.978Z,99.90
2019-03-11T21:19:47.408Z,99.90
2019-03-11T21:22:20.026Z,99.90
2019-03-11T21:24:59.583Z,99.90
2019-03-11T21:27:27.245Z,99.90
2019-03-11T21:29:59.892Z,99.90
2019-03-11T21:32:32.554Z,99.90
2019-03-11T21:35:05.735Z,99.90
2019-03-11T21:37:38.175Z,99.90
2019-03-11T21:40:12.430Z,99.90
2019-03-11T21:42:45.308Z,99.90
2019-03-11T21:45:17.842Z,99.90
2019-03-11T21:47:51.132Z,99.90
2019-03-11T21:50:24.703Z,99.90
2019-03-11T21:52:57.615Z,99.90
2019-03-11T21:55:30.355Z,99.90
2019-03-11T21:58:12.479Z,99.90
2019-03-11T22:00:37.490Z,99.90
2019-03-11T22:03:09.918Z,99.90
2019-03-11T22:05:48.274Z,99.90
2019-03-11T22:08:24.665Z,99.90
2019-03-11T22:10:57.344Z,99.90
2019-03-11T22:13:29.854Z,99.90
2019-03-11T22:16:02.872Z,99.90
2019-03-11T22:18:43.899Z,99.90
2019-03-11T22:21:22.320Z,99.90
2019-03-11T22:23:55.332Z,99.90
2019-03-11T22:26:35.046Z,99.90
2019-03-11T22:29:07.980Z,99.90
2019-03-11T22:31:40.835Z,99.90
2019-03-11T22:34:13.046Z,99.90
2019-03-11T22:36:45.893Z,99.90
2019-03-11T22:39:19.065Z,99.90
2019-03-11T22:41:52.871Z,99.90
2019-03-11T22:44:25.458Z,99.90
2019-03-11T22:46:58.034Z,99.90
2019-03-11T22:49:30.751Z,99.90
2019-03-11T22:52:03.239Z,99.90
2019-03-11T22:54:36.125Z,99.90
2019-03-11T22:57:08.696Z,99.90
2019-03-11T22:59:41.153Z,99.90
2019-03-11T23:02:14.608Z,99.90
2019-03-11T23:04:47.264Z,99.90
2019-03-11T23:07:20.130Z,99.90
2019-03-11T23:09:52.778Z,99.90
2019-03-11T23:12:25.597Z,99.90
2019-03-11T23:14:58.477Z,99.90
2019-03-11T23:17:31.378Z,99.90
2019-03-11T23:20:03.907Z,99.90
2019-03-11T23:22:36.324Z,99.90
2019-03-11T23:25:09.666Z,99.90
2019-03-11T23:27:42.393Z,99.90
2019-03-11T23:30:15.372Z,99.90
2019-03-11T23:32:48.163Z,99.90
2019-03-11T23:35:20.639Z,99.90
2019-03-11T23:37:53.306Z,99.90
2019-03-11T23:40:25.853Z,99.90
2019-03-11T23:42:58.499Z,99.90
2019-03-11T23:45:30.833Z,99.90
2019-03-11T23:48:03.614Z,99.90
2019-03-11T23:50:36.349Z,99.90
2019-03-11T23:53:08.916Z,99.90
2019-03-11T23:55:41.522Z,99.90
2019-03-11T23:58:14.577Z,99.90
